Time;durP1;ratioP1;P1;durP2;ratioP2;P2;SDS_P1;SDS_P2;PMS_P1;PMS_P2;Temp;Humidity;BMP_temperature;BMP_pressure;BME280_temperature;BME280_humidity;BME280_pressure;Samples;Min_cycle;Max_cycle;Signal;HPM_P1;HPM_P2
2021/06/25 00:01:59;;;;;;;29.27;7.03;;;;;;;23.92;100.00;94821.88;10492590;28;20036;-72
2021/06/25 00:06:59;;;;;;;23.27;6.87;;;;;;;23.74;100.00;94821.44;10492907;28;20452;-72
2021/06/25 00:12:00;;;;;;;23.23;6.57;;;;;;;23.62;100.00;94817.63;10492729;28;20411;-72
2021/06/25 00:17:02;;;;;;;27.90;7.72;;;;;;;23.42;100.00;94815.97;10492142;28;20476;-72
2021/06/25 00:22:03;;;;;;;29.05;7.70;;;;;;;23.38;100.00;94811.16;10492272;28;20038;-72
2021/06/25 00:27:04;;;;;;;24.15;5.85;;;;;;;23.37;100.00;94822.47;10492068;28;20035;-72
2021/06/25 00:32:04;;;;;;;22.83;7.15;;;;;;;23.17;100.00;94824.34;10492044;28;20043;-72
2021/06/25 00:37:05;;;;;;;31.58;7.47;;;;;;;23.00;100.00;94831.69;10491280;28;20123;-72
2021/06/25 00:42:09;;;;;;;15.88;6.18;;;;;;;23.04;100.00;94810.66;10491390;28;20090;-72
2021/06/25 00:47:10;;;;;;;26.00;6.68;;;;;;;23.11;100.00;94801.03;10491928;28;20028;-72
2021/06/25 00:52:17;;;;;;;17.13;6.40;;;;;;;23.13;100.00;94796.81;10491288;28;20040;-72
2021/06/25 00:57:18;;;;;;;18.17;7.15;;;;;;;23.22;100.00;94802.16;10491680;28;20051;-73
2021/06/25 01:02:18;;;;;;;33.90;9.07;;;;;;;23.23;100.00;94802.94;10491095;28;20032;-72
2021/06/25 01:07:19;;;;;;;22.87;7.53;;;;;;;23.14;100.00;94805.84;10490654;28;20036;-73
2021/06/25 01:12:19;;;;;;;28.75;6.93;;;;;;;23.13;100.00;94796.81;10489679;28;20032;-72
2021/06/25 01:17:30;;;;;;;21.35;7.53;;;;;;;23.11;100.00;94803.75;10490331;28;20031;-72
2021/06/25 01:22:35;;;;;;;26.23;8.60;;;;;;;23.08;100.00;94815.44;10490431;28;20032;-72
2021/06/25 01:27:37;;;;;;;26.90;8.52;;;;;;;23.02;100.00;94812.16;10488944;28;20028;-72
2021/06/25 01:32:38;;;;;;;22.05;7.13;;;;;;;22.89;100.00;94816.13;10489726;28;20222;-73
2021/06/25 01:37:40;;;;;;;26.52;7.80;;;;;;;22.75;100.00;94811.06;10489664;28;20427;-72
2021/06/25 01:42:42;;;;;;;25.88;8.35;;;;;;;22.68;100.00;94820.66;10488909;28;20487;-72
2021/06/25 01:47:44;;;;;;;24.60;8.40;;;;;;;22.36;100.00;94804.09;10488485;28;20060;-72
2021/06/25 01:52:46;;;;;;;29.20;7.53;;;;;;;22.30;100.00;94802.72;10486447;28;20448;-72
2021/06/25 01:57:46;;;;;;;25.13;8.05;;;;;;;22.35;100.00;94793.50;10488301;28;20060;-72
2021/06/25 02:02:47;;;;;;;30.77;8.70;;;;;;;22.23;100.00;94798.97;10488830;28;20111;-72
2021/06/25 02:07:47;;;;;;;28.60;9.23;;;;;;;22.04;100.00;94814.06;10488141;28;20051;-72
2021/06/25 02:12:48;;;;;;;25.33;8.90;;;;;;;22.05;100.00;94812.94;10487678;28;20119;-72
2021/06/25 02:17:48;;;;;;;30.27;9.97;;;;;;;22.02;100.00;94813.63;10487395;28;20442;-72
2021/06/25 02:22:49;;;;;;;22.85;8.45;;;;;;;21.89;100.00;94812.81;10487371;28;20404;-72
2021/06/25 02:27:49;;;;;;;28.52;8.50;;;;;;;21.70;100.00;94807.97;10486145;28;20024;-72
2021/06/25 02:32:49;;;;;;;22.27;8.53;;;;;;;21.71;100.00;94808.75;10487082;28;20106;-72
2021/06/25 02:37:54;;;;;;;23.33;8.40;;;;;;;21.54;100.00;94801.56;10487285;28;20048;-73
2021/06/25 02:42:55;;;;;;;22.83;10.48;;;;;;;21.63;100.00;94789.38;10486980;28;20031;-73
2021/06/25 02:47:55;;;;;;;30.52;9.63;;;;;;;21.62;100.00;94801.44;10487013;28;20036;-73
2021/06/25 02:52:55;;;;;;;25.50;9.30;;;;;;;21.70;100.00;94801.66;10486900;28;20032;-73
2021/06/25 02:57:56;;;;;;;21.20;8.43;;;;;;;21.64;100.00;94807.38;10486704;28;20071;-73
2021/06/25 03:02:56;;;;;;;29.37;9.83;;;;;;;21.72;100.00;94816.59;10486289;28;20029;-73
2021/06/25 03:07:56;;;;;;;23.10;7.67;;;;;;;21.81;100.00;94827.41;10485385;28;20023;-73
2021/06/25 03:12:57;;;;;;;26.33;7.73;;;;;;;21.83;100.00;94825.16;10485442;28;20028;-73
2021/06/25 03:17:58;;;;;;;30.10;7.70;;;;;;;21.69;100.00;94822.75;10486517;28;20039;-73
2021/06/25 03:22:58;;;;;;;29.73;7.95;;;;;;;21.49;100.00;94827.19;10486059;28;20028;-73
2021/06/25 03:27:58;;;;;;;30.50;7.67;;;;;;;21.56;100.00;94819.25;10486614;28;20031;-73
2021/06/25 03:32:59;;;;;;;28.02;8.15;;;;;;;21.48;100.00;94823.63;10486091;28;20048;-73
2021/06/25 03:38:00;;;;;;;20.80;7.78;;;;;;;21.53;100.00;94830.88;10486298;28;20079;-75
2021/06/25 03:43:00;;;;;;;23.45;7.80;;;;;;;21.73;100.00;94823.69;10485944;28;20028;-72
2021/06/25 03:48:01;;;;;;;26.70;9.82;;;;;;;21.74;100.00;94817.06;10485231;28;20073;-73
2021/06/25 03:53:03;;;;;;;19.50;8.07;;;;;;;21.83;100.00;94811.47;10485268;28;20036;-72
2021/06/25 03:58:03;;;;;;;29.52;8.82;;;;;;;21.97;100.00;94817.38;10485525;28;20037;-73
2021/06/25 04:03:03;;;;;;;18.47;7.40;;;;;;;22.12;100.00;94823.31;10485314;28;20032;-73
2021/06/25 04:08:04;;;;;;;31.65;7.97;;;;;;;22.38;100.00;94822.91;10485335;28;20270;-72
2021/06/25 04:13:05;;;;;;;25.27;9.43;;;;;;;22.26;100.00;94826.47;10484950;28;20031;-73
2021/06/25 04:18:06;;;;;;;34.60;9.55;;;;;;;22.42;100.00;94821.06;10488655;28;20297;-72
2021/06/25 04:23:06;;;;;;;40.80;9.20;;;;;;;22.78;100.00;94821.31;10492800;28;20063;-72
2021/06/25 04:28:07;;;;;;;31.77;10.73;;;;;;;23.18;100.00;94829.47;10491849;28;20099;-73
2021/06/25 04:33:11;;;;;;;30.50;7.70;;;;;;;23.50;100.00;94824.00;10491929;28;20649;-73
2021/06/25 04:38:11;;;;;;;21.90;7.53;;;;;;;24.03;100.00;94820.19;10490195;28;20351;-73
2021/06/25 04:43:15;;;;;;;30.10;8.20;;;;;;;24.43;100.00;94810.84;10490953;28;20043;-73
2021/06/25 04:48:16;;;;;;;26.65;7.50;;;;;;;24.71;100.00;94807.94;10491175;28;20130;-73
2021/06/25 04:53:16;;;;;;;29.35;7.78;;;;;;;25.07;100.00;94808.59;10490715;28;20032;-73
2021/06/25 04:58:18;;;;;;;31.07;7.70;;;;;;;24.93;100.00;94816.56;10489433;28;20031;-72
2021/06/25 05:03:18;;;;;;;23.33;7.75;;;;;;;24.97;100.00;94814.69;10490360;28;20278;-73
2021/06/25 05:08:18;;;;;;;22.50;6.20;;;;;;;24.98;100.00;94826.47;10490437;28;20422;-74
2021/06/25 05:13:19;;;;;;;25.83;7.00;;;;;;;25.10;100.00;94828.28;10489218;28;20282;-74
2021/06/25 05:18:21;;;;;;;35.13;8.00;;;;;;;25.01;100.00;94823.03;10487631;28;20407;-74
2021/06/25 05:23:21;;;;;;;31.45;10.05;;;;;;;25.60;100.00;94812.69;10488640;28;20033;-74
2021/06/25 05:28:22;;;;;;;28.80;6.82;;;;;;;26.31;100.00;94812.19;10486810;28;20133;-74
2021/06/25 05:33:22;;;;;;;24.83;6.10;;;;;;;27.11;100.00;94808.44;10488511;28;20613;-74
2021/06/25 05:38:23;;;;;;;20.88;6.50;;;;;;;28.09;100.00;94813.69;10488949;28;20036;-74
2021/06/25 05:43:23;;;;;;;21.88;7.10;;;;;;;28.68;97.47;94807.34;10488078;28;20115;-74
2021/06/25 05:48:24;;;;;;;28.15;8.23;;;;;;;29.38;91.02;94809.16;10487150;28;20030;-74
2021/06/25 05:53:25;;;;;;;32.30;7.07;;;;;;;29.35;88.72;94816.25;10487675;28;20035;-74
2021/06/25 05:58:25;;;;;;;32.72;7.45;;;;;;;30.31;86.60;94819.47;10485962;28;20131;-74
2021/06/25 06:03:26;;;;;;;31.43;7.23;;;;;;;30.67;86.01;94820.19;10487156;28;20030;-74
2021/06/25 06:08:26;;;;;;;45.90;9.00;;;;;;;31.17;75.05;94816.41;10488006;28;20032;-74
2021/06/25 06:13:27;;;;;;;24.80;7.17;;;;;;;31.68;72.76;94816.91;10487827;28;20032;-73
2021/06/25 06:18:35;;;;;;;21.50;6.60;;;;;;;32.44;70.59;94818.25;10487873;28;20397;-73
2021/06/25 06:34:14;;;;;;;26.92;7.78;;;;;;;34.06;61.31;94813.31;10488652;28;20505;-73
2021/06/25 06:39:14;;;;;;;32.20;7.30;;;;;;;34.50;56.58;94816.97;10488272;28;20041;-73
2021/06/25 06:44:15;;;;;;;25.70;7.30;;;;;;;34.34;55.26;94808.50;10488151;28;20475;-73
2021/06/25 06:49:15;;;;;;;35.57;7.33;;;;;;;34.73;54.81;94801.38;10487941;28;20024;-73
2021/06/25 06:54:16;;;;;;;34.80;8.40;;;;;;;34.99;51.58;94801.69;10488329;28;20115;-73
2021/06/25 06:59:16;;;;;;;44.03;7.53;;;;;;;36.12;50.46;94793.13;10487010;28;20020;-73
2021/06/25 07:04:16;;;;;;;35.03;8.03;;;;;;;36.86;45.73;94796.41;10488095;28;20034;-73
2021/06/25 07:09:17;;;;;;;32.23;7.70;;;;;;;36.75;44.51;94802.28;10487556;28;20024;-73
2021/06/25 07:14:17;;;;;;;30.57;7.50;;;;;;;37.58;43.48;94799.88;10487886;28;20111;-74
2021/06/25 07:19:17;;;;;;;26.03;6.77;;;;;;;38.04;41.35;94796.84;10487511;28;20032;-74
2021/06/25 07:24:18;;;;;;;33.03;7.28;;;;;;;37.98;41.87;94798.66;10487268;28;20354;-74
2021/06/25 07:29:18;;;;;;;47.93;8.20;;;;;;;39.17;40.21;94798.13;10487449;28;20020;-73
2021/06/25 07:34:19;;;;;;;41.42;17.13;;;;;;;38.94;39.40;94794.53;10486750;28;20139;-73
2021/06/25 07:39:19;;;;;;;28.23;7.23;;;;;;;39.52;38.95;94783.94;10487242;28;20051;-74
2021/06/25 07:44:19;;;;;;;25.57;6.57;;;;;;;39.72;38.16;94782.81;10487273;28;20476;-74
2021/06/25 07:49:21;;;;;;;37.03;8.05;;;;;;;40.32;37.26;94779.50;10486813;28;20048;-73
2021/06/25 07:54:22;;;;;;;31.23;6.93;;;;;;;40.67;36.21;94765.13;10492819;28;20039;-74
2021/06/25 07:59:22;;;;;;;32.15;6.50;;;;;;;40.88;36.37;94764.66;10493612;28;20082;-74
2021/06/25 08:04:25;;;;;;;30.40;6.23;;;;;;;40.88;35.79;94759.78;10494554;28;20044;-74
2021/06/25 08:09:26;;;;;;;35.90;7.15;;;;;;;41.56;34.53;94769.97;10494046;28;20028;-74
2021/06/25 08:14:26;;;;;;;31.43;7.03;;;;;;;41.42;34.30;94765.00;10492953;28;20033;-74
2021/06/25 08:19:26;;;;;;;30.97;6.53;;;;;;;41.78;32.17;94766.94;10493311;28;20031;-74
2021/06/25 08:24:27;;;;;;;34.40;6.47;;;;;;;43.51;33.38;94774.97;10493185;28;20115;-74
2021/06/25 08:29:28;;;;;;;44.67;6.73;;;;;;;41.09;36.43;94758.03;10491996;28;20024;-74
2021/06/25 08:34:29;;;;;;;31.75;6.10;;;;;;;40.30;37.44;94759.47;10492574;28;20063;-74
2021/06/25 08:39:30;;;;;;;24.13;5.30;;;;;;;40.64;36.66;94765.28;10493880;28;20422;-74
2021/06/25 08:44:36;;;;;;;26.27;5.53;;;;;;;42.72;31.95;94776.34;10492691;28;20129;-74
2021/06/25 08:49:41;;;;;;;28.13;5.78;;;;;;;43.36;30.24;94763.63;10492414;28;20017;-74
2021/06/25 08:54:41;;;;;;;25.92;5.95;;;;;;;43.82;29.21;94753.00;10492626;28;20029;-74
2021/06/25 08:59:45;;;;;;;22.52;5.18;;;;;;;45.00;27.90;94747.28;10492256;28;20021;-74
2021/06/25 09:04:47;;;;;;;;;;;;;;;45.76;26.47;94736.81;10492458;28;20055;-74
2021/06/25 09:09:49;;;;;;;31.70;4.43;;;;;;;45.86;26.40;94741.81;10492415;28;20035;-73
2021/06/25 09:15:15;;;;;;;32.72;4.97;;;;;;;44.29;27.89;94739.78;10492219;28;20086;-73
2021/06/25 09:20:30;;;;;;;30.50;5.45;;;;;;;44.89;27.40;94722.41;10491630;28;20025;-73
2021/06/25 09:25:47;;;;;;;27.75;4.70;;;;;;;45.39;23.50;94716.41;10491515;28;20078;-73
2021/06/25 09:30:48;;;;;;;28.63;4.00;;;;;;;46.21;23.44;94714.34;10491082;28;20039;-73
2021/06/25 09:35:53;;;;;;;20.77;4.10;;;;;;;45.09;24.81;94718.78;10490946;28;20059;-73
2021/06/25 09:40:54;;;;;;;18.38;3.25;;;;;;;46.34;22.52;94711.84;10491024;28;20116;-73
2021/06/25 09:45:54;;;;;;;18.15;3.90;;;;;;;47.08;22.90;94709.97;10490505;28;20025;-73
2021/06/25 09:50:55;;;;;;;21.10;4.28;;;;;;;47.79;22.62;94701.69;10489970;28;20042;-73
2021/06/25 09:55:59;;;;;;;36.63;4.30;;;;;;;46.72;22.92;94694.63;10489995;28;20028;-73
2021/06/25 10:06:27;;;;;;;25.95;4.80;;;;;;;47.22;21.98;94693.91;10490138;28;20111;-73
2021/06/25 10:11:29;;;;;;;24.90;4.25;;;;;;;46.12;23.46;94691.84;10489028;28;20027;-73
2021/06/25 10:16:29;;;;;;;21.27;4.10;;;;;;;48.08;21.49;94695.34;10488433;28;20067;-73
2021/06/25 10:21:32;;;;;;;27.13;4.50;;;;;;;47.85;21.78;94688.94;10489387;28;20436;-73
2021/06/25 10:26:32;;;;;;;24.60;4.68;;;;;;;46.06;22.86;94677.63;10487735;28;20024;-73
2021/06/25 10:31:34;;;;;;;25.63;3.58;;;;;;;47.67;21.37;94678.91;10489054;28;20021;-73
2021/06/25 10:36:36;;;;;;;18.13;3.58;;;;;;;47.60;21.08;94667.25;10488794;28;20119;-73
2021/06/25 10:41:55;;;;;;;28.08;3.78;;;;;;;47.33;20.65;94667.53;10488896;28;20036;-73
2021/06/25 10:46:55;;;;;;;27.52;3.28;;;;;;;46.51;22.59;94654.25;10488467;28;20024;-73
2021/06/25 10:52:09;;;;;;;30.23;3.72;;;;;;;46.59;21.96;94649.63;10488332;28;20020;-73
2021/06/25 10:57:09;;;;;;;25.60;4.00;;;;;;;46.37;22.62;94648.31;10486649;28;20078;-73
2021/06/25 11:02:11;;;;;;;24.37;3.80;;;;;;;47.20;23.55;94645.28;10487805;28;20412;-74
2021/06/25 11:07:44;;;;;;;28.35;4.07;;;;;;;44.73;22.83;94641.59;10487515;28;20843;-74
2021/06/25 11:12:45;;;;;;;21.48;3.78;;;;;;;42.07;25.55;94637.66;10483552;28;20119;-73
2021/06/25 11:17:48;;;;;;;37.72;5.07;;;;;;;39.88;27.75;94636.19;10486243;28;20029;-73
2021/06/25 11:22:53;;;;;;;29.27;3.85;;;;;;;39.48;27.82;94637.06;10487122;28;20021;-73
2021/06/25 11:28:36;;;;;;;27.93;4.13;;;;;;;38.53;27.84;94635.53;10493182;28;20031;-73
2021/06/25 11:34:00;;;;;;;23.42;4.10;;;;;;;38.25;31.87;94641.78;10495779;28;20052;-74
2021/06/25 11:39:29;;;;;;;35.72;4.45;;;;;;;38.15;28.18;94640.09;10495414;28;20430;-73
2021/06/25 11:44:40;;;;;;;30.65;4.47;;;;;;;37.15;29.93;94638.63;10495162;28;20049;-73
2021/06/25 11:50:10;;;;;;;33.63;4.70;;;;;;;37.02;31.82;94641.44;10495007;28;20438;-73
2021/06/25 11:55:12;;;;;;;24.90;3.63;;;;;;;36.99;30.75;94631.16;10494363;28;20034;-73
2021/06/25 12:00:20;;;;;;;37.60;5.18;;;;;;;36.37;30.56;94624.56;10494704;28;20032;-73
2021/06/25 12:05:28;;;;;;;30.27;4.15;;;;;;;36.66;27.65;94620.13;10494144;28;20032;-73
2021/06/25 12:10:29;;;;;;;28.35;4.03;;;;;;;36.56;30.74;94617.22;10494297;28;20028;-73
2021/06/25 12:15:29;;;;;;;32.17;5.22;;;;;;;36.68;28.90;94620.47;10493573;28;20442;-73
2021/06/25 12:20:31;;;;;;;36.70;3.80;;;;;;;36.70;28.09;94618.81;10494193;28;20511;-73
2021/06/25 12:25:40;;;;;;;30.55;3.67;;;;;;;36.40;26.04;94615.28;10494239;28;20024;-73
2021/06/25 12:30:44;;;;;;;32.05;5.43;;;;;;;35.96;28.21;94608.53;10493317;28;20748;-73
2021/06/25 12:35:47;;;;;;;23.35;3.78;;;;;;;36.20;30.54;94607.06;10493313;28;20075;-73
2021/06/25 12:40:51;;;;;;;30.50;4.10;;;;;;;36.21;31.56;94600.22;10492403;28;20028;-73
2021/06/25 12:45:55;;;;;;;34.28;4.75;;;;;;;36.02;29.97;94590.00;10492722;28;20051;-73
2021/06/25 12:50:57;;;;;;;19.55;3.92;;;;;;;35.99;30.02;94585.28;10492941;28;20090;-73
2021/06/25 12:56:06;;;;;;;17.77;3.65;;;;;;;35.80;29.99;94584.19;10492332;28;20107;-73
2021/06/25 13:01:08;;;;;;;27.70;4.10;;;;;;;35.01;29.05;94570.22;10492667;28;20111;-73
2021/06/25 13:06:30;;;;;;;30.52;4.40;;;;;;;34.88;31.76;94578.53;10491850;28;20031;-73
2021/06/25 13:11:37;;;;;;;27.25;4.07;;;;;;;34.85;31.60;94571.03;10490493;28;20119;-73
2021/06/25 13:16:40;;;;;;;24.33;4.05;;;;;;;34.34;30.52;94565.75;10491264;28;20036;-73
2021/06/25 13:21:46;;;;;;;24.80;3.78;;;;;;;34.31;32.09;94561.81;10491591;28;20094;-73
2021/06/25 13:26:59;;;;;;;27.48;3.13;;;;;;;34.51;28.87;94561.78;10489754;28;20116;-73
2021/06/25 13:32:03;;;;;;;33.78;4.75;;;;;;;34.22;29.46;94573.56;10490738;28;20115;-73
2021/06/25 13:37:06;;;;;;;17.88;3.63;;;;;;;34.32;30.55;94566.19;10490554;28;20059;-73
2021/06/25 13:42:16;;;;;;;27.88;3.53;;;;;;;34.39;29.67;94559.69;10488998;28;20057;-73
2021/06/25 13:47:18;;;;;;;24.08;3.40;;;;;;;34.45;29.06;94560.72;10488875;28;20028;-73
2021/06/25 13:52:22;;;;;;;25.15;3.20;;;;;;;34.54;29.06;94562.94;10489259;28;20114;-73
2021/06/25 13:57:22;;;;;;;25.58;4.10;;;;;;;34.56;30.55;94547.31;10489314;28;20028;-73
2021/06/25 14:02:30;;;;;;;27.10;4.17;;;;;;;34.54;30.85;94546.97;10489428;28;20028;-73
2021/06/25 14:07:31;;;;;;;19.88;2.65;;;;;;;34.51;29.23;94539.47;10489070;28;20020;-73
2021/06/25 14:12:39;;;;;;;16.03;3.67;;;;;;;34.48;30.48;94533.97;10489292;28;20032;-73
2021/06/25 14:17:39;;;;;;;20.65;3.50;;;;;;;34.36;30.42;94530.63;10488576;28;20482;-73
2021/06/25 14:22:40;;;;;;;20.73;3.43;;;;;;;34.31;30.13;94533.94;10488748;28;20032;-74
2021/06/25 14:27:41;;;;;;;22.93;3.27;;;;;;;34.26;28.95;94530.84;10488362;28;20103;-74
2021/06/25 14:32:42;;;;;;;20.08;3.88;;;;;;;34.17;28.15;94528.66;10488309;28;20294;-74
2021/06/25 14:37:43;;;;;;;23.35;3.53;;;;;;;34.23;28.45;94530.50;10488359;28;20036;-74
2021/06/25 14:42:43;;;;;;;24.30;4.07;;;;;;;34.21;31.06;94541.28;10487535;28;20024;-74
2021/06/25 14:47:44;;;;;;;22.47;3.33;;;;;;;34.05;27.58;94535.69;10487643;28;20036;-74
2021/06/25 14:52:45;;;;;;;24.67;3.10;;;;;;;34.07;27.21;94525.66;10487976;28;20027;-74
2021/06/25 14:57:45;;;;;;;22.52;3.70;;;;;;;34.12;29.89;94518.78;10487529;28;20039;-74
2021/06/25 15:02:46;;;;;;;23.92;4.30;;;;;;;34.13;29.93;94525.94;10487484;28;20036;-73
2021/06/25 15:07:46;;;;;;;20.77;3.37;;;;;;;34.17;31.92;94518.25;10487666;28;20446;-73
2021/06/25 15:12:46;;;;;;;29.27;3.60;;;;;;;34.19;31.47;94535.38;10487214;28;20275;-74
2021/06/25 15:17:47;;;;;;;22.80;4.87;;;;;;;34.13;30.33;94531.50;10487720;28;20298;-74
2021/06/25 15:22:49;;;;;;;26.08;4.03;;;;;;;33.94;32.54;94552.63;10486262;28;20039;-73
2021/06/25 15:27:50;;;;;;;24.52;3.78;;;;;;;33.84;34.13;94548.06;10487224;28;20393;-74
2021/06/25 15:32:54;;;;;;;32.45;5.45;;;;;;;33.80;33.48;94548.13;10487442;28;20053;-74
2021/06/25 15:37:55;;;;;;;30.20;3.83;;;;;;;33.77;33.98;94545.41;10486863;28;20116;-74
2021/06/25 15:42:56;;;;;;;25.70;4.13;;;;;;;33.69;33.68;94536.41;10486757;28;20032;-73
2021/06/25 15:47:58;;;;;;;21.43;3.90;;;;;;;33.71;33.08;94536.75;10486667;28;20024;-73
2021/06/25 15:52:58;;;;;;;22.02;3.28;;;;;;;33.67;34.42;94544.38;10486527;28;20322;-73
2021/06/25 15:57:59;;;;;;;18.00;3.47;;;;;;;33.63;33.72;94544.47;10486249;28;20119;-73
2021/06/25 16:02:59;;;;;;;39.47;7.53;;;;;;;33.58;34.35;94555.34;10486242;28;20082;-73
2021/06/25 16:08:00;;;;;;;39.55;5.68;;;;;;;33.26;44.02;94559.50;10486473;28;20112;-73
2021/06/25 16:13:01;;;;;;;18.77;3.90;;;;;;;33.04;48.58;94549.50;10488543;28;20029;-73
2021/06/25 16:18:01;;;;;;;26.65;4.82;;;;;;;32.74;47.37;94555.13;10493240;28;20024;-73
2021/06/25 16:23:02;;;;;;;35.42;5.38;;;;;;;32.46;51.55;94565.47;10493607;28;20491;-73
2021/06/25 16:28:02;;;;;;;25.88;4.22;;;;;;;32.31;49.96;94559.34;10493421;28;20103;-73
2021/06/25 16:33:03;;;;;;;33.17;5.05;;;;;;;31.98;55.90;94554.16;10493672;28;20053;-73
2021/06/25 16:38:04;;;;;;;27.85;5.68;;;;;;;31.75;53.05;94551.31;10496818;28;20055;-74
2021/06/25 16:43:04;;;;;;;30.45;4.57;;;;;;;31.55;62.56;94548.31;10493120;28;20032;-74
2021/06/25 16:48:06;;;;;;;22.17;4.87;;;;;;;31.53;56.13;94549.50;10493166;28;20020;-74
2021/06/25 16:53:06;;;;;;;31.92;4.35;;;;;;;31.27;51.14;94555.75;10492479;28;20024;-74
2021/06/25 16:58:06;;;;;;;32.87;4.37;;;;;;;31.06;44.73;94553.97;10492169;28;20109;-74
2021/06/25 17:03:07;;;;;;;29.47;5.07;;;;;;;31.02;46.92;94562.31;10492420;28;20032;-73
2021/06/25 17:08:08;;;;;;;29.63;5.03;;;;;;;30.97;46.29;94560.75;10490395;28;20031;-74
2021/06/25 17:13:09;;;;;;;26.73;3.90;;;;;;;30.88;44.24;94567.97;10491803;28;20044;-74
2021/06/25 17:18:12;;;;;;;32.27;4.03;;;;;;;30.77;46.45;94573.59;10491517;28;20031;-74
2021/06/25 17:23:13;;;;;;;19.30;4.28;;;;;;;30.61;45.34;94585.22;10490905;28;20033;-74
2021/06/25 17:28:14;;;;;;;22.75;4.15;;;;;;;30.53;43.57;94583.69;10491414;28;20082;-74
2021/06/25 17:33:14;;;;;;;20.80;3.60;;;;;;;30.37;43.62;94573.06;10491228;28;20052;-74
2021/06/25 17:38:15;;;;;;;23.08;4.32;;;;;;;30.14;44.18;94574.34;10495256;28;20028;-74
2021/06/25 17:43:16;;;;;;;31.23;4.47;;;;;;;29.93;46.63;94570.53;10487071;28;20511;-74
2021/06/25 17:48:17;;;;;;;29.50;5.03;;;;;;;29.73;45.89;94574.91;10489095;28;20115;-74
2021/06/25 17:53:17;;;;;;;31.05;5.38;;;;;;;29.59;46.57;94570.22;10488418;28;20101;-74
2021/06/25 17:58:18;;;;;;;34.57;4.57;;;;;;;29.49;45.52;94578.13;10488432;28;20040;-74
2021/06/25 18:03:18;;;;;;;25.45;5.15;;;;;;;29.36;44.42;94573.44;10488083;28;20024;-74
2021/06/25 18:08:19;;;;;;;32.10;6.20;;;;;;;29.35;44.38;94575.41;10487799;28;20024;-74
2021/06/25 18:13:19;;;;;;;33.40;5.07;;;;;;;29.29;45.90;94577.00;10488136;28;20029;-74
2021/06/25 18:18:20;;;;;;;31.93;5.80;;;;;;;29.26;46.90;94575.03;10487122;28;20290;-74
2021/06/25 18:23:20;;;;;;;35.15;5.70;;;;;;;29.13;48.98;94592.00;10486927;28;20104;-74
2021/06/25 18:28:21;;;;;;;24.50;5.00;;;;;;;29.01;48.70;94589.66;10502846;28;20024;-74
2021/06/25 18:33:21;;;;;;;34.33;6.63;;;;;;;28.96;50.96;94592.81;10486711;28;20307;-74
2021/06/25 18:38:22;;;;;;;35.67;6.93;;;;;;;28.84;51.62;94591.22;10502149;28;20302;-74
2021/06/25 18:43:22;;;;;;;29.97;6.23;;;;;;;28.66;52.22;94605.03;10486242;28;20035;-74
2021/06/25 18:48:22;;;;;;;34.90;5.73;;;;;;;28.66;54.51;94609.78;10485993;28;20040;-74
2021/06/25 18:53:23;;;;;;;31.67;6.23;;;;;;;28.67;57.17;94612.16;10485964;28;20285;-74
2021/06/25 18:58:23;;;;;;;34.50;6.53;;;;;;;28.52;57.72;94613.28;10485138;28;20121;-74
2021/06/25 19:03:24;;;;;;;33.93;8.13;;;;;;;28.40;58.42;94612.50;10486157;28;20119;-74
2021/06/25 19:08:25;;;;;;;27.10;4.85;;;;;;;28.29;58.59;94626.28;10486094;28;20028;-74
2021/06/25 19:13:25;;;;;;;36.47;6.20;;;;;;;28.12;65.33;94618.72;10485712;28;20031;-74
2021/06/25 19:18:26;;;;;;;27.52;5.78;;;;;;;28.03;65.67;94630.13;10485483;28;20035;-74
2021/06/25 19:23:26;;;;;;;36.97;6.03;;;;;;;27.90;67.81;94645.44;10484764;28;20494;-74
2021/06/25 19:28:26;;;;;;;27.87;6.53;;;;;;;27.77;61.67;94650.50;10484844;28;20025;-74
2021/06/25 19:33:27;;;;;;;19.27;5.30;;;;;;;27.68;57.75;94647.28;10484736;28;20052;-74
2021/06/25 19:38:27;;;;;;;22.10;4.87;;;;;;;27.56;59.13;94649.19;10484618;28;20032;-74
2021/06/25 19:43:28;;;;;;;32.10;6.55;;;;;;;27.51;57.68;94648.78;10486093;28;20032;-74
2021/06/25 19:48:28;;;;;;;23.87;4.90;;;;;;;27.36;55.82;94651.41;10489841;28;20029;-74
2021/06/25 19:53:29;;;;;;;27.83;4.30;;;;;;;27.38;54.80;94637.22;10493830;28;20047;-74
2021/06/25 19:58:29;;;;;;;38.17;5.97;;;;;;;27.34;55.55;94634.44;10493844;28;20098;-74
2021/06/25 20:03:31;;;;;;;24.70;5.32;;;;;;;27.26;55.77;94628.06;10491990;28;20468;-74
2021/06/25 20:08:31;;;;;;;26.25;4.30;;;;;;;27.23;56.18;94623.31;10492963;28;20383;-74
2021/06/25 20:13:32;;;;;;;35.43;5.20;;;;;;;27.10;56.76;94620.06;10491415;28;20035;-74
2021/06/25 20:18:33;;;;;;;22.33;4.53;;;;;;;27.10;56.16;94617.31;10492446;28;20302;-74
2021/06/25 20:23:34;;;;;;;31.02;4.25;;;;;;;27.05;57.89;94616.88;10492408;28;20552;-74
2021/06/25 20:28:35;;;;;;;23.63;4.57;;;;;;;26.92;59.88;94619.16;10490488;28;20031;-74
2021/06/25 20:33:35;;;;;;;23.83;4.43;;;;;;;26.76;61.92;94597.34;10491898;28;20071;-74
2021/06/25 20:38:36;;;;;;;26.37;4.77;;;;;;;26.51;62.52;94588.81;10491899;28;20093;-74
2021/06/25 20:43:36;;;;;;;21.73;5.50;;;;;;;26.40;63.72;94594.22;10491347;28;20029;-74
2021/06/25 20:48:37;;;;;;;28.58;4.63;;;;;;;26.24;66.37;94592.50;10491044;28;20267;-74
2021/06/25 20:53:39;;;;;;;34.13;5.73;;;;;;;26.22;67.99;94588.53;10491274;28;20020;-74
2021/06/25 20:58:40;;;;;;;20.98;4.80;;;;;;;26.16;68.40;94587.28;10490702;28;20343;-74
2021/06/25 21:03:40;;;;;;;23.47;4.67;;;;;;;26.07;69.03;94593.88;10489748;28;20537;-74
2021/06/25 21:08:40;;;;;;;18.70;4.10;;;;;;;25.85;71.79;94590.06;10491087;28;20323;-74
2021/06/25 21:13:41;;;;;;;26.37;4.63;;;;;;;25.75;73.31;94583.25;10490701;28;20466;-74
2021/06/25 21:18:41;;;;;;;22.13;4.50;;;;;;;25.71;77.29;94589.91;10490378;28;20025;-74
2021/06/25 21:23:42;;;;;;;20.23;4.73;;;;;;;25.71;84.60;94587.94;10490546;28;20630;-74
2021/06/25 21:28:42;;;;;;;20.35;4.63;;;;;;;25.68;88.02;94591.44;10489973;28;20024;-74
2021/06/25 21:33:44;;;;;;;21.23;4.03;;;;;;;25.64;88.02;94595.31;10490365;28;20503;-74
2021/06/25 21:38:45;;;;;;;35.80;4.63;;;;;;;25.45;81.68;94605.28;10489913;28;20298;-74
2021/06/25 21:43:45;;;;;;;26.55;4.20;;;;;;;25.20;84.82;94604.88;10489921;28;20036;-74
2021/06/25 21:48:45;;;;;;;27.30;3.90;;;;;;;24.94;86.51;94614.72;10488106;28;20029;-74
2021/06/25 21:53:46;;;;;;;23.33;4.20;;;;;;;24.76;88.81;94627.41;10488990;28;20479;-74
2021/06/25 21:58:46;;;;;;;14.57;4.20;;;;;;;24.71;92.30;94642.22;10488884;28;20373;-74
2021/06/25 22:03:48;;;;;;;16.77;4.70;;;;;;;24.57;94.21;94656.47;10488702;28;20135;-74
2021/06/25 22:08:49;;;;;;;27.42;4.55;;;;;;;24.45;100.00;94651.13;10487467;28;20036;-74
2021/06/25 22:13:49;;;;;;;22.73;4.55;;;;;;;24.21;100.00;94653.03;10487521;28;20035;-74
2021/06/25 22:18:50;;;;;;;29.93;6.10;;;;;;;24.16;100.00;94667.09;10488092;28;20791;-74
2021/06/25 22:23:53;;;;;;;24.90;6.17;;;;;;;24.24;100.00;94663.31;10487306;28;20020;-74
2021/06/25 22:28:54;;;;;;;28.15;5.53;;;;;;;24.07;100.00;94650.81;10487460;28;20372;-74
2021/06/25 22:33:54;;;;;;;20.20;6.28;;;;;;;23.71;100.00;94648.13;10487881;28;20052;-74
2021/06/25 22:38:55;;;;;;;25.77;5.00;;;;;;;23.61;100.00;94642.38;10487326;28;20405;-74
2021/06/25 22:43:56;;;;;;;26.75;5.40;;;;;;;23.51;100.00;94633.59;10487281;28;20283;-74
2021/06/25 22:48:56;;;;;;;33.72;7.70;;;;;;;23.52;100.00;94628.88;10485716;28;20028;-74
2021/06/25 22:53:56;;;;;;;31.63;5.83;;;;;;;23.64;100.00;94627.94;10486140;28;20467;-74
2021/06/25 22:59:01;;;;;;;26.50;6.50;;;;;;;23.77;100.00;94625.88;10486450;28;20123;-74
2021/06/25 23:04:01;;;;;;;27.13;6.95;;;;;;;23.89;100.00;94604.59;10486909;28;20035;-74
2021/06/25 23:09:02;;;;;;;40.60;6.90;;;;;;;23.95;100.00;94599.63;10486827;28;20480;-74
2021/06/25 23:14:03;;;;;;;28.42;7.38;;;;;;;24.06;100.00;94599.81;10486455;28;20033;-74
2021/06/25 23:19:03;;;;;;;27.75;7.75;;;;;;;24.22;100.00;94588.72;10487789;28;20054;-74